Hardin, MT

10:37 PM MDT on September 30, 2014 (GMT -0600)
Sheridan County | Change Station
CLOSE
Current Station
Airport
Location: Sheridan,
Elevation: 3967 ft
Nearby Weather Stations

Elev 3967 ft 44.76 °N, 106.97 °W | Updated 44 minutes ago

Overcast
Overcast
52 °F
Feels Like 52 °F
N
5
Wind Variable Wind from NW

Today
High -- | Low -- °F
--% Chance of Precip.
Yesterday
High -- | Low -- °F
Precip. -- in
7:07 AM 6:52 PM
Waxing Crescent, 43% visible
Pressure 29.77 in
Visibility 10.0 miles
Clouds Overcast 7000 ft
Dew Point 45 °F
Humidity 76%
Rainfall 0.00 in
Snow Depth 0 in , 0 in , 0 in
UV 0 out of 12
Pollen 3.90 out of 12
Air Quality Not available.
Flu Activity Not available.
METAR KSHR 010353Z AUTO 31004KT 10SM OVC070 11/07 A2977

More Conditions Fewer Conditions

Pressure 29.77 in
Visibility 10.0 miles
Clouds Overcast 7000 ft
Dew Point 45 °F
Humidity 76%
Rainfall 0.00 in
Snow Depth 0 in , 0 in , 0 in
UV 0 out of 12
Pollen 3.90 out of 12
Air Quality Not available.
Flu Activity Not available.
METAR KSHR 010353Z AUTO 31004KT 10SM OVC070 11/07 A2977

More Conditions Fewer Conditions

10-Day Weather Forecast

Almanac

Astronomy

Sep. 30, 2014 Rise Set
Actual Time 7:07 AM MDT 6:52 PM MDT
Civil Twilight 6:37 AM MDT 7:22 PM MDT
Nautical Twilight 6:03 AM MDT 7:56 PM MDT
Astronomical Twilight 5:28 AM MDT 8:31 PM MDT
Moon 1:32 PM MDT (9/30) 11:11 PM MDT (9/30)
Length of Visible Light 12h 44m
Length of Day
11h 44m
Tomorrow will be 3m 10s shorter.
Waxing Crescent, 43% of the Moon is Illuminated
Oct 1
Waxing Crescent
Oct 1
First Quarter
Oct 8
Full
Oct 15
Last Quarter
Oct 23
New

Yesterday's Extremes

State Highs State Lows

Community

WunderPhotos

Upload Photos

1,757,845 photos uploaded!

Nearby

Snow Depth

Station Depth Elevation
Banfield Mountain 0 in 5600 ft
Divide 0 in 7800 ft
Combination 0 in 5600 ft
Black Bear 0 in 8150 ft
North Fork Jocko 0 in 6330 ft

Earthquake Activity

City Distance Mag. Time & Date
No recent earthquake activity has been reported nearby.
Minimum magnitude displayed is 2.5.

Coastal Water Temperatures

Place Temperature
No Stations Reporting

Nearby Weather Stations